sensor_id;sensor_type;location;lat;lon;timestamp;pressure;altitude;pressure_sealevel;temperature;humidity
59513;BME280;45330;51.634;5.562;2023-02-26T00:01:36;101781.19;;;-2.28;100.00
59513;BME280;45330;51.634;5.562;2023-02-26T00:04:03;101791.38;;;-2.15;100.00
59513;BME280;45330;51.634;5.562;2023-02-26T00:06:31;101789.00;;;-2.12;100.00
59513;BME280;45330;51.634;5.562;2023-02-26T00:08:58;101774.22;;;-2.17;100.00
59513;BME280;45330;51.634;5.562;2023-02-26T00:11:24;101798.09;;;-2.02;100.00
59513;BME280;45330;51.634;5.562;2023-02-26T00:13:50;101794.94;;;-1.98;100.00
59513;BME280;45330;51.634;5.562;2023-02-26T00:18:50;101801.13;;;-1.79;100.00
59513;BME280;45330;51.634;5.562;2023-02-26T00:21:21;101803.25;;;-1.72;100.00
59513;BME280;45330;51.634;5.562;2023-02-26T00:23:47;101791.56;;;-1.68;100.00
59513;BME280;45330;51.634;5.562;2023-02-26T00:26:12;101787.44;;;-1.66;100.00
59513;BME280;45330;51.634;5.562;2023-02-26T00:28:38;101780.94;;;-1.61;100.00
59513;BME280;45330;51.634;5.562;2023-02-26T00:31:04;101816.25;;;-1.39;100.00
59513;BME280;45330;51.634;5.562;2023-02-26T00:33:30;101818.38;;;-1.32;100.00
59513;BME280;45330;51.634;5.562;2023-02-26T00:36:14;101820.94;;;-1.32;100.00
59513;BME280;45330;51.634;5.562;2023-02-26T00:38:46;101808.41;;;-1.42;100.00
59513;BME280;45330;51.634;5.562;2023-02-26T00:41:15;101790.63;;;-1.56;100.00
59513;BME280;45330;51.634;5.562;2023-02-26T00:43:41;101809.53;;;-1.52;100.00
59513;BME280;45330;51.634;5.562;2023-02-26T00:49:13;101843.22;;;-1.58;100.00
59513;BME280;45330;51.634;5.562;2023-02-26T00:51:55;101828.69;;;-1.74;100.00
59513;BME280;45330;51.634;5.562;2023-02-26T00:54:24;101809.81;;;-1.91;100.00
59513;BME280;45330;51.634;5.562;2023-02-26T00:56:51;101838.44;;;-1.81;100.00
59513;BME280;45330;51.634;5.562;2023-02-26T00:59:18;101815.94;;;-2.02;100.00
59513;BME280;45330;51.634;5.562;2023-02-26T01:01:44;101823.59;;;-2.02;100.00
59513;BME280;45330;51.634;5.562;2023-02-26T01:04:10;101846.69;;;-1.85;100.00
59513;BME280;45330;51.634;5.562;2023-02-26T01:06:41;101827.09;;;-2.00;100.00
59513;BME280;45330;51.634;5.562;2023-02-26T01:11:34;101835.94;;;-1.95;100.00
59513;BME280;45330;51.634;5.562;2023-02-26T01:14:00;101856.19;;;-1.83;100.00
59513;BME280;45330;51.634;5.562;2023-02-26T01:16:27;101832.22;;;-2.00;100.00
59513;BME280;45330;51.634;5.562;2023-02-26T01:19:00;101848.69;;;-1.95;100.00
59513;BME280;45330;51.634;5.562;2023-02-26T01:21:35;101826.38;;;-2.12;100.00
59513;BME280;45330;51.634;5.562;2023-02-26T01:24:05;101823.63;;;-2.15;100.00
59513;BME280;45330;51.634;5.562;2023-02-26T01:26:32;101855.06;;;-2.01;100.00
59513;BME280;45330;51.634;5.562;2023-02-26T01:28:58;101835.69;;;-2.13;100.00
59513;BME280;45330;51.634;5.562;2023-02-26T01:31:51;101854.53;;;-2.11;100.00
59513;BME280;45330;51.634;5.562;2023-02-26T01:34:33;101858.13;;;-2.07;100.00
59513;BME280;45330;51.634;5.562;2023-02-26T01:37:21;101852.56;;;-2.15;100.00
59513;BME280;45330;51.634;5.562;2023-02-26T01:40:25;101859.44;;;-2.14;100.00
59513;BME280;45330;51.634;5.562;2023-02-26T01:43:02;101861.78;;;-2.17;100.00
59513;BME280;45330;51.634;5.562;2023-02-26T01:45:34;101849.94;;;-2.30;100.00
59513;BME280;45330;51.634;5.562;2023-02-26T01:48:06;101857.78;;;-2.27;100.00
59513;BME280;45330;51.634;5.562;2023-02-26T01:50:34;101845.25;;;-2.37;100.00
59513;BME280;45330;51.634;5.562;2023-02-26T01:53:19;101877.28;;;-2.27;100.00
59513;BME280;45330;51.634;5.562;2023-02-26T01:55:48;101875.25;;;-2.33;100.00
59513;BME280;45330;51.634;5.562;2023-02-26T01:58:15;101889.56;;;-2.35;100.00
59513;BME280;45330;51.634;5.562;2023-02-26T02:00:41;101873.78;;;-2.43;100.00
59513;BME280;45330;51.634;5.562;2023-02-26T02:03:07;101868.41;;;-2.47;100.00
59513;BME280;45330;51.634;5.562;2023-02-26T02:05:44;101893.59;;;-2.38;100.00
59513;BME280;45330;51.634;5.562;2023-02-26T02:08:11;101867.50;;;-2.48;100.00
59513;BME280;45330;51.634;5.562;2023-02-26T02:10:41;101897.19;;;-2.21;100.00
59513;BME280;45330;51.634;5.562;2023-02-26T02:18:35;101903.66;;;-2.27;100.00
59513;BME280;45330;51.634;5.562;2023-02-26T02:21:27;101915.91;;;-2.21;100.00
59513;BME280;45330;51.634;5.562;2023-02-26T02:26:52;101927.59;;;-2.25;100.00
59513;BME280;45330;51.634;5.562;2023-02-26T02:32:43;101933.09;;;-2.32;100.00
59513;BME280;45330;51.634;5.562;2023-02-26T02:36:08;101931.31;;;-2.33;100.00
59513;BME280;45330;51.634;5.562;2023-02-26T02:38:12;101920.44;;;-2.44;100.00
59513;BME280;45330;51.634;5.562;2023-02-26T02:40:43;101903.47;;;-2.56;100.00
59513;BME280;45330;51.634;5.562;2023-02-26T02:43:14;101937.69;;;-2.39;100.00
59513;BME280;45330;51.634;5.562;2023-02-26T02:46:02;101934.84;;;-2.44;100.00
59513;BME280;45330;51.634;5.562;2023-02-26T02:53:57;101952.66;;;-2.58;100.00
59513;BME280;45330;51.634;5.562;2023-02-26T02:59:16;101951.78;;;-2.71;100.00
59513;BME280;45330;51.634;5.562;2023-02-26T03:01:44;101956.38;;;-2.79;100.00
59513;BME280;45330;51.634;5.562;2023-02-26T03:04:13;101944.00;;;-2.86;100.00
59513;BME280;45330;51.634;5.562;2023-02-26T03:06:40;101937.22;;;-2.99;100.00
59513;BME280;45330;51.634;5.562;2023-02-26T03:09:07;101939.09;;;-2.97;100.00
59513;BME280;45330;51.634;5.562;2023-02-26T03:11:34;101938.56;;;-3.04;100.00
59513;BME280;45330;51.634;5.562;2023-02-26T03:14:01;101948.75;;;-3.04;100.00
59513;BME280;45330;51.634;5.562;2023-02-26T03:16:34;101972.22;;;-2.97;100.00
59513;BME280;45330;51.634;5.562;2023-02-26T03:27:01;101951.38;;;-3.16;100.00
59513;BME280;45330;51.634;5.562;2023-02-26T03:32:10;101982.16;;;-3.00;100.00
59513;BME280;45330;51.634;5.562;2023-02-26T03:34:44;101978.53;;;-3.03;100.00
59513;BME280;45330;51.634;5.562;2023-02-26T03:37:25;101969.88;;;-3.19;100.00
59513;BME280;45330;51.634;5.562;2023-02-26T03:39:58;101986.22;;;-3.15;100.00
59513;BME280;45330;51.634;5.562;2023-02-26T03:42:50;101980.91;;;-3.18;100.00
59513;BME280;45330;51.634;5.562;2023-02-26T03:45:23;102004.66;;;-3.06;100.00
59513;BME280;45330;51.634;5.562;2023-02-26T03:47:50;102010.34;;;-3.10;100.00
59513;BME280;45330;51.634;5.562;2023-02-26T03:50:34;102011.78;;;-3.14;100.00
59513;BME280;45330;51.634;5.562;2023-02-26T03:53:02;102012.25;;;-3.19;100.00
59513;BME280;45330;51.634;5.562;2023-02-26T03:55:45;101991.06;;;-3.32;100.00
59513;BME280;45330;51.634;5.562;2023-02-26T03:58:13;102009.50;;;-3.22;100.00
59513;BME280;45330;51.634;5.562;2023-02-26T04:00:41;101989.28;;;-3.33;100.00
59513;BME280;45330;51.634;5.562;2023-02-26T04:03:11;102014.00;;;-3.18;100.00
59513;BME280;45330;51.634;5.562;2023-02-26T04:05:43;102008.63;;;-3.23;100.00
59513;BME280;45330;51.634;5.562;2023-02-26T04:08:10;101997.59;;;-3.35;100.00
59513;BME280;45330;51.634;5.562;2023-02-26T04:10:41;102021.44;;;-3.21;100.00
59513;BME280;45330;51.634;5.562;2023-02-26T04:13:07;102025.88;;;-3.19;100.00
59513;BME280;45330;51.634;5.562;2023-02-26T04:15:32;102026.34;;;-3.24;100.00
59513;BME280;45330;51.634;5.562;2023-02-26T04:17:58;102024.09;;;-3.20;100.00
59513;BME280;45330;51.634;5.562;2023-02-26T04:20:23;102027.31;;;-3.22;100.00
59513;BME280;45330;51.634;5.562;2023-02-26T04:22:49;102038.13;;;-3.13;100.00
59513;BME280;45330;51.634;5.562;2023-02-26T04:25:14;102012.41;;;-3.30;100.00
59513;BME280;45330;51.634;5.562;2023-02-26T04:27:40;102041.44;;;-3.14;100.00
59513;BME280;45330;51.634;5.562;2023-02-26T04:30:06;101979.06;;;-3.58;100.00
59513;BME280;45330;51.634;5.562;2023-02-26T04:32:31;102051.31;;;-3.19;100.00
59513;BME280;45330;51.634;5.562;2023-02-26T04:34:57;102055.06;;;-3.14;100.00
59513;BME280;45330;51.634;5.562;2023-02-26T04:37:22;102018.25;;;-3.31;100.00
59513;BME280;45330;51.634;5.562;2023-02-26T04:39:48;102031.31;;;-3.26;100.00
59513;BME280;45330;51.634;5.562;2023-02-26T04:42:13;102054.66;;;-3.20;100.00
59513;BME280;45330;51.634;5.562;2023-02-26T04:44:38;102039.41;;;-3.32;100.00
59513;BME280;45330;51.634;5.562;2023-02-26T04:47:04;102066.59;;;-3.19;100.00
59513;BME280;45330;51.634;5.562;2023-02-26T04:49:29;102066.50;;;-3.20;100.00
59513;BME280;45330;51.634;5.562;2023-02-26T04:51:55;102077.25;;;-3.24;100.00
59513;BME280;45330;51.634;5.562;2023-02-26T04:54:20;102056.69;;;-3.39;100.00
59513;BME280;45330;51.634;5.562;2023-02-26T04:56:46;102062.78;;;-3.37;100.00
59513;BME280;45330;51.634;5.562;2023-02-26T04:59:11;102089.41;;;-3.20;100.00
59513;BME280;45330;51.634;5.562;2023-02-26T05:01:36;102060.09;;;-3.27;100.00
59513;BME280;45330;51.634;5.562;2023-02-26T05:04:02;102095.22;;;-3.10;100.00
59513;BME280;45330;51.634;5.562;2023-02-26T05:06:27;102091.16;;;-3.07;100.00
59513;BME280;45330;51.634;5.562;2023-02-26T05:08:53;102085.59;;;-3.14;100.00
59513;BME280;45330;51.634;5.562;2023-02-26T05:11:18;102100.00;;;-3.14;100.00
59513;BME280;45330;51.634;5.562;2023-02-26T05:13:43;102101.13;;;-3.22;100.00
59513;BME280;45330;51.634;5.562;2023-02-26T05:16:09;102113.66;;;-3.25;100.00
59513;BME280;45330;51.634;5.562;2023-02-26T05:18:35;102090.31;;;-3.43;100.00
59513;BME280;45330;51.634;5.562;2023-02-26T05:21:01;102081.94;;;-3.54;100.00
59513;BME280;45330;51.634;5.562;2023-02-26T05:23:26;102102.06;;;-3.46;100.00
59513;BME280;45330;51.634;5.562;2023-02-26T05:25:57;102091.00;;;-3.58;100.00
59513;BME280;45330;51.634;5.562;2023-02-26T05:28:23;102110.25;;;-3.50;100.00
59513;BME280;45330;51.634;5.562;2023-02-26T05:30:49;102114.34;;;-3.52;100.00
59513;BME280;45330;51.634;5.562;2023-02-26T05:33:14;102096.31;;;-3.67;100.00
59513;BME280;45330;51.634;5.562;2023-02-26T05:35:40;102115.91;;;-3.54;100.00
59513;BME280;45330;51.634;5.562;2023-02-26T05:38:05;102096.00;;;-3.59;100.00
59513;BME280;45330;51.634;5.562;2023-02-26T05:40:30;102110.91;;;-3.52;100.00
59513;BME280;45330;51.634;5.562;2023-02-26T05:42:56;102113.22;;;-3.43;100.00
59513;BME280;45330;51.634;5.562;2023-02-26T05:45:21;102122.63;;;-3.42;100.00
59513;BME280;45330;51.634;5.562;2023-02-26T05:47:46;102126.84;;;-3.43;100.00
59513;BME280;45330;51.634;5.562;2023-02-26T05:50:12;102117.78;;;-3.51;100.00
59513;BME280;45330;51.634;5.562;2023-02-26T05:52:38;102117.34;;;-3.46;100.00
59513;BME280;45330;51.634;5.562;2023-02-26T05:55:03;102110.25;;;-3.50;100.00
59513;BME280;45330;51.634;5.562;2023-02-26T05:57:29;102132.69;;;-3.32;100.00
59513;BME280;45330;51.634;5.562;2023-02-26T05:59:54;102139.44;;;-3.33;100.00
59513;BME280;45330;51.634;5.562;2023-02-26T06:02:20;102132.78;;;-3.31;100.00
59513;BME280;45330;51.634;5.562;2023-02-26T06:04:45;102131.38;;;-3.39;100.00
59513;BME280;45330;51.634;5.562;2023-02-26T06:07:11;102152.84;;;-3.23;100.00
59513;BME280;45330;51.634;5.562;2023-02-26T06:09:37;102142.75;;;-3.34;100.00
59513;BME280;45330;51.634;5.562;2023-02-26T06:12:02;102164.34;;;-3.29;100.00
59513;BME280;45330;51.634;5.562;2023-02-26T06:14:27;102154.50;;;-3.36;100.00
59513;BME280;45330;51.634;5.562;2023-02-26T06:16:54;102140.34;;;-3.44;100.00
59513;BME280;45330;51.634;5.562;2023-02-26T06:19:19;102166.69;;;-3.32;100.00
59513;BME280;45330;51.634;5.562;2023-02-26T06:21:46;102149.66;;;-3.45;100.00
59513;BME280;45330;51.634;5.562;2023-02-26T06:24:11;102169.78;;;-3.36;100.00
59513;BME280;45330;51.634;5.562;2023-02-26T06:26:36;102175.84;;;-3.34;100.00
59513;BME280;45330;51.634;5.562;2023-02-26T06:29:02;102152.84;;;-3.47;100.00
59513;BME280;45330;51.634;5.562;2023-02-26T06:31:27;102168.22;;;-3.46;100.00
59513;BME280;45330;51.634;5.562;2023-02-26T06:33:53;102192.56;;;-3.37;100.00
59513;BME280;45330;51.634;5.562;2023-02-26T06:36:18;102195.66;;;-3.41;100.00
59513;BME280;45330;51.634;5.562;2023-02-26T06:38:43;102200.09;;;-3.39;100.00
59513;BME280;45330;51.634;5.562;2023-02-26T06:41:11;102177.84;;;-3.53;100.00
59513;BME280;45330;51.634;5.562;2023-02-26T06:43:37;102175.94;;;-3.56;100.00
59513;BME280;45330;51.634;5.562;2023-02-26T06:46:02;102210.38;;;-3.37;100.00
59513;BME280;45330;51.634;5.562;2023-02-26T06:48:28;102218.13;;;-3.36;100.00
59513;BME280;45330;51.634;5.562;2023-02-26T06:50:53;102223.22;;;-3.36;100.00
59513;BME280;45330;51.634;5.562;2023-02-26T06:53:19;102197.53;;;-3.51;100.00
59513;BME280;45330;51.634;5.562;2023-02-26T06:55:46;102203.75;;;-3.47;100.00
59513;BME280;45330;51.634;5.562;2023-02-26T06:58:13;102242.34;;;-3.29;100.00
59513;BME280;45330;51.634;5.562;2023-02-26T07:00:39;102215.66;;;-3.46;100.00
59513;BME280;45330;51.634;5.562;2023-02-26T07:03:06;102253.31;;;-3.30;100.00
59513;BME280;45330;51.634;5.562;2023-02-26T07:05:31;102258.53;;;-3.29;100.00
59513;BME280;45330;51.634;5.562;2023-02-26T07:07:57;102266.59;;;-3.22;100.00
59513;BME280;45330;51.634;5.562;2023-02-26T07:10:22;102264.06;;;-3.22;100.00
59513;BME280;45330;51.634;5.562;2023-02-26T07:12:49;102262.09;;;-3.15;100.00
59513;BME280;45330;51.634;5.562;2023-02-26T07:15:15;102235.41;;;-3.32;100.00
59513;BME280;45330;51.634;5.562;2023-02-26T07:17:41;102265.16;;;-3.07;100.00
59513;BME280;45330;51.634;5.562;2023-02-26T07:20:07;102278.78;;;-2.95;100.00
59513;BME280;45330;51.634;5.562;2023-02-26T07:22:35;102263.19;;;-2.99;100.00
59513;BME280;45330;51.634;5.562;2023-02-26T07:25:02;102299.59;;;-2.77;100.00
59513;BME280;45330;51.634;5.562;2023-02-26T07:27:28;102292.19;;;-2.73;100.00
59513;BME280;45330;51.634;5.562;2023-02-26T07:29:54;102302.69;;;-2.69;100.00
59513;BME280;45330;51.634;5.562;2023-02-26T07:32:20;102308.03;;;-2.66;100.00
59513;BME280;45330;51.634;5.562;2023-02-26T07:34:46;102313.00;;;-2.67;100.00
59513;BME280;45330;51.634;5.562;2023-02-26T07:37:11;102314.00;;;-2.65;100.00
59513;BME280;45330;51.634;5.562;2023-02-26T07:39:37;102316.88;;;-2.61;100.00
59513;BME280;45330;51.634;5.562;2023-02-26T07:42:02;102324.63;;;-2.59;100.00
59513;BME280;45330;51.634;5.562;2023-02-26T07:44:27;102326.16;;;-2.49;100.00
59513;BME280;45330;51.634;5.562;2023-02-26T07:46:53;102324.06;;;-2.43;100.00
59513;BME280;45330;51.634;5.562;2023-02-26T07:49:18;102312.97;;;-2.44;100.00
59513;BME280;45330;51.634;5.562;2023-02-26T07:51:44;102318.50;;;-2.37;100.00
59513;BME280;45330;51.634;5.562;2023-02-26T07:54:13;102333.16;;;-2.35;100.00
59513;BME280;45330;51.634;5.562;2023-02-26T07:56:39;102318.28;;;-2.41;100.00
59513;BME280;45330;51.634;5.562;2023-02-26T07:59:05;102342.44;;;-2.23;100.00
59513;BME280;45330;51.634;5.562;2023-02-26T08:01:31;102327.13;;;-2.23;100.00
59513;BME280;45330;51.634;5.562;2023-02-26T08:03:56;102339.75;;;-2.13;100.00
59513;BME280;45330;51.634;5.562;2023-02-26T08:06:22;102344.91;;;-2.00;100.00
59513;BME280;45330;51.634;5.562;2023-02-26T08:08:47;102344.78;;;-1.90;100.00
59513;BME280;45330;51.634;5.562;2023-02-26T08:11:12;102323.44;;;-1.90;100.00
59513;BME280;45330;51.634;5.562;2023-02-26T08:13:38;102351.59;;;-1.77;100.00
59513;BME280;45330;51.634;5.562;2023-02-26T08:16:03;102323.91;;;-1.84;100.00
59513;BME280;45330;51.634;5.562;2023-02-26T08:18:29;102323.06;;;-1.71;100.00
59513;BME280;45330;51.634;5.562;2023-02-26T08:20:54;102352.16;;;-1.56;100.00
59513;BME280;45330;51.634;5.562;2023-02-26T08:23:20;102329.38;;;-1.66;100.00
59513;BME280;45330;51.634;5.562;2023-02-26T08:25:45;102346.59;;;-1.50;100.00
59513;BME280;45330;51.634;5.562;2023-02-26T08:28:11;102357.31;;;-1.42;100.00
59513;BME280;45330;51.634;5.562;2023-02-26T08:30:36;102347.09;;;-1.42;100.00
59513;BME280;45330;51.634;5.562;2023-02-26T08:33:02;102347.81;;;-1.31;100.00
59513;BME280;45330;51.634;5.562;2023-02-26T08:35:28;102371.25;;;-1.12;100.00
59513;BME280;45330;51.634;5.562;2023-02-26T08:37:54;102383.75;;;-1.03;100.00
59513;BME280;45330;51.634;5.562;2023-02-26T08:40:19;102353.97;;;-1.02;100.00
59513;BME280;45330;51.634;5.562;2023-02-26T08:42:45;102382.19;;;-0.88;100.00
59513;BME280;45330;51.634;5.562;2023-02-26T08:45:11;102381.03;;;-0.79;100.00
59513;BME280;45330;51.634;5.562;2023-02-26T08:47:36;102376.09;;;-0.76;100.00
59513;BME280;45330;51.634;5.562;2023-02-26T08:50:03;102380.94;;;-0.67;100.00
59513;BME280;45330;51.634;5.562;2023-02-26T08:52:28;102397.06;;;-0.55;100.00
59513;BME280;45330;51.634;5.562;2023-02-26T08:54:54;102396.47;;;-0.38;100.00
59513;BME280;45330;51.634;5.562;2023-02-26T08:57:19;102408.00;;;-0.31;100.00
59513;BME280;45330;51.634;5.562;2023-02-26T08:59:45;102395.97;;;-0.32;100.00
59513;BME280;45330;51.634;5.562;2023-02-26T09:02:11;102381.91;;;-0.25;100.00
59513;BME280;45330;51.634;5.562;2023-02-26T09:04:36;102420.16;;;0.00;100.00
59513;BME280;45330;51.634;5.562;2023-02-26T09:07:02;102401.06;;;-0.05;100.00
59513;BME280;45330;51.634;5.562;2023-02-26T09:09:27;102431.31;;;0.15;100.00
59513;BME280;45330;51.634;5.562;2023-02-26T09:11:52;102433.69;;;0.26;100.00
59513;BME280;45330;51.634;5.562;2023-02-26T09:14:18;102402.28;;;0.15;100.00
59513;BME280;45330;51.634;5.562;2023-02-26T09:16:43;102414.84;;;0.25;100.00
59513;BME280;45330;51.634;5.562;2023-02-26T09:19:09;102446.84;;;0.45;100.00
59513;BME280;45330;51.634;5.562;2023-02-26T09:21:35;102453.91;;;0.49;100.00
59513;BME280;45330;51.634;5.562;2023-02-26T09:24:01;102432.84;;;0.40;100.00
59513;BME280;45330;51.634;5.562;2023-02-26T09:26:29;102431.38;;;0.44;100.00
59513;BME280;45330;51.634;5.562;2023-02-26T09:28:54;102459.22;;;0.53;100.00
59513;BME280;45330;51.634;5.562;2023-02-26T09:31:19;102461.59;;;0.49;100.00
59513;BME280;45330;51.634;5.562;2023-02-26T09:33:45;102464.34;;;0.53;100.00
59513;BME280;45330;51.634;5.562;2023-02-26T09:36:10;102467.94;;;0.56;100.00
59513;BME280;45330;51.634;5.562;2023-02-26T09:38:36;102460.06;;;0.66;100.00
59513;BME280;45330;51.634;5.562;2023-02-26T09:41:07;102462.63;;;0.66;100.00
59513;BME280;45330;51.634;5.562;2023-02-26T09:46:40;102486.19;;;0.89;100.00
59513;BME280;45330;51.634;5.562;2023-02-26T09:49:17;102476.19;;;0.94;100.00
59513;BME280;45330;51.634;5.562;2023-02-26T09:51:45;102481.50;;;0.97;100.00
59513;BME280;45330;51.634;5.562;2023-02-26T09:54:23;102458.25;;;0.94;96.98
59513;BME280;45330;51.634;5.562;2023-02-26T09:56:51;102456.69;;;0.96;100.00
59513;BME280;45330;51.634;5.562;2023-02-26T09:59:17;102487.00;;;1.18;94.94
59513;BME280;45330;51.634;5.562;2023-02-26T10:02:00;102476.13;;;1.22;96.96
59513;BME280;45330;51.634;5.562;2023-02-26T10:04:44;102500.13;;;1.37;88.81
59513;BME280;45330;51.634;5.562;2023-02-26T10:09:56;102518.09;;;1.52;81.81
59513;BME280;45330;51.634;5.562;2023-02-26T10:12:27;102492.50;;;1.39;77.47
59513;BME280;45330;51.634;5.562;2023-02-26T10:17:40;102502.16;;;1.43;72.24
59513;BME280;45330;51.634;5.562;2023-02-26T10:20:17;102492.34;;;1.36;72.92
59513;BME280;45330;51.634;5.562;2023-02-26T10:31:04;102486.06;;;1.61;70.11
59513;BME280;45330;51.634;5.562;2023-02-26T10:33:49;102488.00;;;1.50;69.44
59513;BME280;45330;51.634;5.562;2023-02-26T10:36:29;102495.34;;;1.59;66.30
59513;BME280;45330;51.634;5.562;2023-02-26T10:41:48;102518.88;;;1.66;65.47
59513;BME280;45330;51.634;5.562;2023-02-26T10:44:28;102503.84;;;1.58;67.38
59513;BME280;45330;51.634;5.562;2023-02-26T10:48:07;102504.13;;;1.62;66.18
59513;BME280;45330;51.634;5.562;2023-02-26T10:50:09;102518.59;;;1.77;68.23
59513;BME280;45330;51.634;5.562;2023-02-26T10:52:36;102483.13;;;1.54;67.23
59513;BME280;45330;51.634;5.562;2023-02-26T10:55:06;102525.53;;;1.78;67.79
59513;BME280;45330;51.634;5.562;2023-02-26T10:57:41;102516.13;;;1.78;66.63
59513;BME280;45330;51.634;5.562;2023-02-26T11:00:17;102515.50;;;1.82;62.22
59513;BME280;45330;51.634;5.562;2023-02-26T11:02:46;102526.75;;;1.84;63.74
59513;BME280;45330;51.634;5.562;2023-02-26T11:05:16;102513.47;;;1.92;64.56
59513;BME280;45330;51.634;5.562;2023-02-26T11:07:43;102522.28;;;1.97;64.93
59513;BME280;45330;51.634;5.562;2023-02-26T11:10:16;102518.16;;;1.99;62.76
59513;BME280;45330;51.634;5.562;2023-02-26T11:12:41;102509.03;;;2.04;61.68
59513;BME280;45330;51.634;5.562;2023-02-26T11:15:16;102522.81;;;2.21;59.42
59513;BME280;45330;51.634;5.562;2023-02-26T11:17:44;102519.38;;;2.05;57.88
59513;BME280;45330;51.634;5.562;2023-02-26T11:20:40;102507.66;;;2.11;59.03
59513;BME280;45330;51.634;5.562;2023-02-26T11:23:11;102525.53;;;2.24;58.16
59513;BME280;45330;51.634;5.562;2023-02-26T11:25:38;102537.66;;;2.27;57.16
59513;BME280;45330;51.634;5.562;2023-02-26T11:28:23;102503.59;;;2.14;56.04
59513;BME280;45330;51.634;5.562;2023-02-26T11:30:49;102510.59;;;2.33;55.97
59513;BME280;45330;51.634;5.562;2023-02-26T11:33:48;102527.75;;;2.49;55.34
59513;BME280;45330;51.634;5.562;2023-02-26T11:36:17;102525.75;;;2.44;55.67
59513;BME280;45330;51.634;5.562;2023-02-26T11:38:46;102518.59;;;2.54;57.18
59513;BME280;45330;51.634;5.562;2023-02-26T11:41:16;102542.94;;;2.61;55.51
59513;BME280;45330;51.634;5.562;2023-02-26T11:43:47;102537.00;;;2.62;56.19
59513;BME280;45330;51.634;5.562;2023-02-26T11:46:14;102535.63;;;2.52;56.71
59513;BME280;45330;51.634;5.562;2023-02-26T11:48:43;102488.47;;;2.35;55.74
59513;BME280;45330;51.634;5.562;2023-02-26T11:51:21;102520.13;;;2.51;56.39
59513;BME280;45330;51.634;5.562;2023-02-26T11:53:55;102500.13;;;2.45;55.75
59513;BME280;45330;51.634;5.562;2023-02-26T11:56:41;102514.69;;;2.61;56.03
59513;BME280;45330;51.634;5.562;2023-02-26T11:59:16;102518.22;;;2.63;56.25
59513;BME280;45330;51.634;5.562;2023-02-26T12:01:42;102515.66;;;2.63;56.58
59513;BME280;45330;51.634;5.562;2023-02-26T12:04:12;102501.19;;;2.65;56.98
59513;BME280;45330;51.634;5.562;2023-02-26T12:06:37;102511.06;;;2.74;55.66
59513;BME280;45330;51.634;5.562;2023-02-26T12:09:08;102511.41;;;2.80;56.98
59513;BME280;45330;51.634;5.562;2023-02-26T12:36:37;102510.75;;;3.01;54.92
59513;BME280;45330;51.634;5.562;2023-02-26T12:45:17;102502.66;;;3.09;53.40
59513;BME280;45330;51.634;5.562;2023-02-26T12:50:43;102490.66;;;3.10;54.57
59513;BME280;45330;51.634;5.562;2023-02-26T12:56:22;102494.09;;;3.27;52.93
59513;BME280;45330;51.634;5.562;2023-02-26T12:59:10;102493.50;;;3.33;52.39
59513;BME280;45330;51.634;5.562;2023-02-26T13:10:02;102488.97;;;3.45;53.78
59513;BME280;45330;51.634;5.562;2023-02-26T13:12:45;102489.50;;;3.38;53.91
59513;BME280;45330;51.634;5.562;2023-02-26T13:15:41;102497.94;;;3.35;53.89
59513;BME280;45330;51.634;5.562;2023-02-26T13:18:22;102501.56;;;3.22;54.66
59513;BME280;45330;51.634;5.562;2023-02-26T13:20:59;102507.78;;;3.44;53.29
59513;BME280;45330;51.634;5.562;2023-02-26T13:23:33;102482.00;;;3.26;53.92
59513;BME280;45330;51.634;5.562;2023-02-26T13:26:04;102478.53;;;3.42;54.37
59513;BME280;45330;51.634;5.562;2023-02-26T13:28:37;102500.28;;;3.49;52.98
59513;BME280;45330;51.634;5.562;2023-02-26T13:31:09;102490.19;;;3.52;52.87
59513;BME280;45330;51.634;5.562;2023-02-26T13:33:37;102483.94;;;3.65;53.08
59513;BME280;45330;51.634;5.562;2023-02-26T13:36:05;102489.59;;;3.93;53.38
59513;BME280;45330;51.634;5.562;2023-02-26T13:41:43;102504.69;;;4.04;52.87
59513;BME280;45330;51.634;5.562;2023-02-26T13:47:15;102482.25;;;4.01;52.54
59513;BME280;45330;51.634;5.562;2023-02-26T13:58:27;102481.66;;;3.89;53.10
59513;BME280;45330;51.634;5.562;2023-02-26T14:01:05;102490.25;;;3.89;52.77
59513;BME280;45330;51.634;5.562;2023-02-26T14:03:39;102484.03;;;3.84;52.99
59513;BME280;45330;51.634;5.562;2023-02-26T14:08:55;102481.19;;;3.98;53.51
59513;BME280;45330;51.634;5.562;2023-02-26T14:14:22;102475.97;;;3.96;53.53
59513;BME280;45330;51.634;5.562;2023-02-26T14:19:42;102489.00;;;3.99;52.18
59513;BME280;45330;51.634;5.562;2023-02-26T14:25:20;102491.22;;;3.91;51.18
59513;BME280;45330;51.634;5.562;2023-02-26T14:27:45;102495.56;;;3.92;51.83
59513;BME280;45330;51.634;5.562;2023-02-26T14:30:16;102490.50;;;3.94;52.37
59513;BME280;45330;51.634;5.562;2023-02-26T14:37:46;102507.63;;;3.93;52.56
59513;BME280;45330;51.634;5.562;2023-02-26T14:40:19;102500.81;;;3.94;53.08
59513;BME280;45330;51.634;5.562;2023-02-26T14:42:51;102467.16;;;3.73;52.58
59513;BME280;45330;51.634;5.562;2023-02-26T14:45:28;102475.31;;;3.82;53.18
59513;BME280;45330;51.634;5.562;2023-02-26T14:47:56;102489.97;;;4.01;54.41
59513;BME280;45330;51.634;5.562;2023-02-26T14:50:23;102499.03;;;4.11;52.61
59513;BME280;45330;51.634;5.562;2023-02-26T14:55:40;102470.75;;;3.94;51.72
59513;BME280;45330;51.634;5.562;2023-02-26T15:20:00;102498.38;;;3.97;51.19
59513;BME280;45330;51.634;5.562;2023-02-26T15:25:05;102506.28;;;4.02;51.56
59513;BME280;45330;51.634;5.562;2023-02-26T15:27:32;102497.19;;;3.90;51.09
59513;BME280;45330;51.634;5.562;2023-02-26T15:29:59;102509.47;;;3.96;51.57
59513;BME280;45330;51.634;5.562;2023-02-26T15:32:26;102505.94;;;3.94;51.32
59513;BME280;45330;51.634;5.562;2023-02-26T15:37:40;102508.13;;;3.86;51.65
59513;BME280;45330;51.634;5.562;2023-02-26T15:40:06;102509.91;;;3.87;52.18
59513;BME280;45330;51.634;5.562;2023-02-26T15:42:35;102485.34;;;3.76;52.09